sensor_id;sensor_type;location;lat;lon;timestamp;temperature;humidity
46676;DHT22;32412;51.478;5.694;2023-08-17T00:01:44;18.90;99.90
46676;DHT22;32412;51.478;5.694;2023-08-17T00:04:09;18.90;99.90
46676;DHT22;32412;51.478;5.694;2023-08-17T00:06:35;18.80;99.90
46676;DHT22;32412;51.478;5.694;2023-08-17T00:09:01;18.80;99.90
46676;DHT22;32412;51.478;5.694;2023-08-17T00:11:26;18.80;99.90
46676;DHT22;32412;51.478;5.694;2023-08-17T00:13:52;18.80;99.90
46676;DHT22;32412;51.478;5.694;2023-08-17T00:16:18;18.70;99.90
46676;DHT22;32412;51.478;5.694;2023-08-17T00:18:43;18.70;99.90
46676;DHT22;32412;51.478;5.694;2023-08-17T00:21:09;18.70;99.90
46676;DHT22;32412;51.478;5.694;2023-08-17T00:23:35;18.70;99.90
46676;DHT22;32412;51.478;5.694;2023-08-17T00:26:02;18.60;99.90
46676;DHT22;32412;51.478;5.694;2023-08-17T00:28:27;18.60;99.90
46676;DHT22;32412;51.478;5.694;2023-08-17T00:30:53;18.60;99.90
46676;DHT22;32412;51.478;5.694;2023-08-17T00:33:19;18.60;99.90
46676;DHT22;32412;51.478;5.694;2023-08-17T00:35:44;18.60;99.90
46676;DHT22;32412;51.478;5.694;2023-08-17T00:38:11;18.60;99.90
46676;DHT22;32412;51.478;5.694;2023-08-17T00:40:37;18.60;99.90
46676;DHT22;32412;51.478;5.694;2023-08-17T00:43:03;18.60;99.90
46676;DHT22;32412;51.478;5.694;2023-08-17T00:45:29;18.50;99.90
46676;DHT22;32412;51.478;5.694;2023-08-17T00:47:56;18.50;99.90
46676;DHT22;32412;51.478;5.694;2023-08-17T00:50:24;18.40;99.90
46676;DHT22;32412;51.478;5.694;2023-08-17T00:52:51;18.40;99.90
46676;DHT22;32412;51.478;5.694;2023-08-17T00:55:17;18.40;99.90
46676;DHT22;32412;51.478;5.694;2023-08-17T00:57:43;18.40;99.90
46676;DHT22;32412;51.478;5.694;2023-08-17T01:00:11;18.40;99.90
46676;DHT22;32412;51.478;5.694;2023-08-17T01:02:39;18.40;99.90
46676;DHT22;32412;51.478;5.694;2023-08-17T01:05:05;18.30;99.90
46676;DHT22;32412;51.478;5.694;2023-08-17T01:07:47;18.30;99.90
46676;DHT22;32412;51.478;5.694;2023-08-17T01:10:12;18.20;99.90
46676;DHT22;32412;51.478;5.694;2023-08-17T01:15:24;18.20;99.90
46676;DHT22;32412;51.478;5.694;2023-08-17T01:20:49;18.10;99.90
46676;DHT22;32412;51.478;5.694;2023-08-17T01:23:15;18.10;99.90
46676;DHT22;32412;51.478;5.694;2023-08-17T01:25:40;18.10;99.90
46676;DHT22;32412;51.478;5.694;2023-08-17T01:28:06;18.00;99.90
46676;DHT22;32412;51.478;5.694;2023-08-17T01:30:57;18.00;99.90
46676;DHT22;32412;51.478;5.694;2023-08-17T01:33:32;18.00;99.90
46676;DHT22;32412;51.478;5.694;2023-08-17T01:38:44;17.90;99.90
46676;DHT22;32412;51.478;5.694;2023-08-17T01:41:11;17.90;99.90
46676;DHT22;32412;51.478;5.694;2023-08-17T01:43:40;17.80;99.90
46676;DHT22;32412;51.478;5.694;2023-08-17T01:46:07;17.80;99.90
46676;DHT22;32412;51.478;5.694;2023-08-17T01:48:33;17.80;99.90
46676;DHT22;32412;51.478;5.694;2023-08-17T01:50:59;17.80;99.90
46676;DHT22;32412;51.478;5.694;2023-08-17T01:53:24;17.80;99.90
46676;DHT22;32412;51.478;5.694;2023-08-17T01:55:50;17.80;99.90
46676;DHT22;32412;51.478;5.694;2023-08-17T01:58:15;17.80;99.90
46676;DHT22;32412;51.478;5.694;2023-08-17T02:00:41;17.80;99.90
46676;DHT22;32412;51.478;5.694;2023-08-17T02:03:07;17.80;99.90
46676;DHT22;32412;51.478;5.694;2023-08-17T02:05:33;17.80;99.90
46676;DHT22;32412;51.478;5.694;2023-08-17T02:07:58;17.70;99.90
46676;DHT22;32412;51.478;5.694;2023-08-17T02:10:24;17.80;99.90
46676;DHT22;32412;51.478;5.694;2023-08-17T02:12:50;17.80;99.90
46676;DHT22;32412;51.478;5.694;2023-08-17T02:15:16;17.80;99.90
46676;DHT22;32412;51.478;5.694;2023-08-17T02:17:41;17.80;99.90
46676;DHT22;32412;51.478;5.694;2023-08-17T02:20:08;17.80;99.90
46676;DHT22;32412;51.478;5.694;2023-08-17T02:22:34;17.70;99.90
46676;DHT22;32412;51.478;5.694;2023-08-17T02:25:00;17.70;99.90
46676;DHT22;32412;51.478;5.694;2023-08-17T02:27:26;17.80;99.90
46676;DHT22;32412;51.478;5.694;2023-08-17T02:29:51;17.80;99.90
46676;DHT22;32412;51.478;5.694;2023-08-17T02:32:17;17.80;99.90
46676;DHT22;32412;51.478;5.694;2023-08-17T02:34:43;17.70;99.90
46676;DHT22;32412;51.478;5.694;2023-08-17T02:37:09;17.70;99.90
46676;DHT22;32412;51.478;5.694;2023-08-17T02:39:34;17.70;99.90
46676;DHT22;32412;51.478;5.694;2023-08-17T02:42:00;17.70;99.90
46676;DHT22;32412;51.478;5.694;2023-08-17T02:44:26;17.70;99.90
46676;DHT22;32412;51.478;5.694;2023-08-17T02:46:53;17.70;99.90
46676;DHT22;32412;51.478;5.694;2023-08-17T02:49:19;17.70;99.90
46676;DHT22;32412;51.478;5.694;2023-08-17T02:51:45;17.60;99.90
46676;DHT22;32412;51.478;5.694;2023-08-17T02:54:11;17.70;99.90
46676;DHT22;32412;51.478;5.694;2023-08-17T02:56:36;17.70;99.90
46676;DHT22;32412;51.478;5.694;2023-08-17T02:59:02;17.70;99.90
46676;DHT22;32412;51.478;5.694;2023-08-17T03:01:28;17.70;99.90
46676;DHT22;32412;51.478;5.694;2023-08-17T03:03:54;17.70;99.90
46676;DHT22;32412;51.478;5.694;2023-08-17T03:06:20;17.60;99.90
46676;DHT22;32412;51.478;5.694;2023-08-17T03:08:45;17.60;99.90
46676;DHT22;32412;51.478;5.694;2023-08-17T03:11:11;17.70;99.90
46676;DHT22;32412;51.478;5.694;2023-08-17T03:13:37;17.60;99.90
46676;DHT22;32412;51.478;5.694;2023-08-17T03:16:03;17.60;99.90
46676;DHT22;32412;51.478;5.694;2023-08-17T03:18:28;17.60;99.90
46676;DHT22;32412;51.478;5.694;2023-08-17T03:20:54;17.60;99.90
46676;DHT22;32412;51.478;5.694;2023-08-17T03:23:20;17.60;99.90
46676;DHT22;32412;51.478;5.694;2023-08-17T03:25:45;17.60;99.90
46676;DHT22;32412;51.478;5.694;2023-08-17T03:28:12;17.60;99.90
46676;DHT22;32412;51.478;5.694;2023-08-17T03:30:38;17.60;99.90
46676;DHT22;32412;51.478;5.694;2023-08-17T03:33:04;17.60;99.90
46676;DHT22;32412;51.478;5.694;2023-08-17T03:35:29;17.50;99.90
46676;DHT22;32412;51.478;5.694;2023-08-17T03:37:55;17.60;99.90
46676;DHT22;32412;51.478;5.694;2023-08-17T03:40:20;17.60;99.90
46676;DHT22;32412;51.478;5.694;2023-08-17T03:42:46;17.50;99.90
46676;DHT22;32412;51.478;5.694;2023-08-17T03:45:12;17.50;99.90
46676;DHT22;32412;51.478;5.694;2023-08-17T03:47:37;17.50;99.90
46676;DHT22;32412;51.478;5.694;2023-08-17T03:50:03;17.40;99.90
46676;DHT22;32412;51.478;5.694;2023-08-17T03:52:29;17.50;99.90
46676;DHT22;32412;51.478;5.694;2023-08-17T03:54:54;17.40;99.90
46676;DHT22;32412;51.478;5.694;2023-08-17T03:57:20;17.40;99.90
46676;DHT22;32412;51.478;5.694;2023-08-17T03:59:46;17.40;99.90
46676;DHT22;32412;51.478;5.694;2023-08-17T04:02:11;17.30;99.90
46676;DHT22;32412;51.478;5.694;2023-08-17T04:04:37;17.30;99.90
46676;DHT22;32412;51.478;5.694;2023-08-17T04:07:02;17.20;99.90
46676;DHT22;32412;51.478;5.694;2023-08-17T04:09:28;17.20;99.90
46676;DHT22;32412;51.478;5.694;2023-08-17T04:11:54;17.20;99.90
46676;DHT22;32412;51.478;5.694;2023-08-17T04:14:20;17.20;99.90
46676;DHT22;32412;51.478;5.694;2023-08-17T04:16:46;17.20;99.90
46676;DHT22;32412;51.478;5.694;2023-08-17T04:19:12;17.20;99.90
46676;DHT22;32412;51.478;5.694;2023-08-17T04:21:37;17.20;99.90
46676;DHT22;32412;51.478;5.694;2023-08-17T04:24:03;17.10;99.90
46676;DHT22;32412;51.478;5.694;2023-08-17T04:26:29;17.10;99.90
46676;DHT22;32412;51.478;5.694;2023-08-17T04:28:55;17.10;99.90
46676;DHT22;32412;51.478;5.694;2023-08-17T04:31:20;17.00;99.90
46676;DHT22;32412;51.478;5.694;2023-08-17T04:33:46;17.00;99.90
46676;DHT22;32412;51.478;5.694;2023-08-17T04:36:11;17.00;99.90
46676;DHT22;32412;51.478;5.694;2023-08-17T04:38:37;17.00;99.90
46676;DHT22;32412;51.478;5.694;2023-08-17T04:41:03;17.00;99.90
46676;DHT22;32412;51.478;5.694;2023-08-17T04:43:29;17.00;99.90
46676;DHT22;32412;51.478;5.694;2023-08-17T04:45:54;17.00;99.90
46676;DHT22;32412;51.478;5.694;2023-08-17T04:48:20;17.10;99.90
46676;DHT22;32412;51.478;5.694;2023-08-17T04:50:45;17.00;99.90
46676;DHT22;32412;51.478;5.694;2023-08-17T04:53:11;17.00;99.90
46676;DHT22;32412;51.478;5.694;2023-08-17T04:55:37;17.00;99.90
46676;DHT22;32412;51.478;5.694;2023-08-17T04:58:02;17.00;99.90
46676;DHT22;32412;51.478;5.694;2023-08-17T05:00:28;17.00;99.90
46676;DHT22;32412;51.478;5.694;2023-08-17T05:02:54;16.90;99.90
46676;DHT22;32412;51.478;5.694;2023-08-17T05:05:20;16.90;99.90
46676;DHT22;32412;51.478;5.694;2023-08-17T05:07:46;16.90;99.90
46676;DHT22;32412;51.478;5.694;2023-08-17T05:10:12;16.90;99.90
46676;DHT22;32412;51.478;5.694;2023-08-17T05:12:37;16.90;99.90
46676;DHT22;32412;51.478;5.694;2023-08-17T05:15:03;16.90;99.90
46676;DHT22;32412;51.478;5.694;2023-08-17T05:17:29;16.90;99.90
46676;DHT22;32412;51.478;5.694;2023-08-17T05:19:55;17.00;99.90
46676;DHT22;32412;51.478;5.694;2023-08-17T05:22:21;17.00;99.90
46676;DHT22;32412;51.478;5.694;2023-08-17T05:24:47;17.10;99.90
46676;DHT22;32412;51.478;5.694;2023-08-17T05:27:13;17.10;99.90
46676;DHT22;32412;51.478;5.694;2023-08-17T05:29:38;17.00;99.90
46676;DHT22;32412;51.478;5.694;2023-08-17T05:32:04;17.10;99.90
46676;DHT22;32412;51.478;5.694;2023-08-17T05:34:30;17.00;99.90
46676;DHT22;32412;51.478;5.694;2023-08-17T05:36:56;17.00;99.90
46676;DHT22;32412;51.478;5.694;2023-08-17T05:39:22;17.00;99.90
46676;DHT22;32412;51.478;5.694;2023-08-17T05:41:47;17.00;99.90
46676;DHT22;32412;51.478;5.694;2023-08-17T05:44:13;17.00;99.90
46676;DHT22;32412;51.478;5.694;2023-08-17T05:46:40;17.00;99.90
46676;DHT22;32412;51.478;5.694;2023-08-17T05:49:06;17.00;99.90
46676;DHT22;32412;51.478;5.694;2023-08-17T05:51:31;17.10;99.90
46676;DHT22;32412;51.478;5.694;2023-08-17T05:53:57;17.20;99.90
46676;DHT22;32412;51.478;5.694;2023-08-17T05:56:22;17.20;99.90
46676;DHT22;32412;51.478;5.694;2023-08-17T05:58:48;17.30;99.90
46676;DHT22;32412;51.478;5.694;2023-08-17T06:01:14;17.30;99.90
46676;DHT22;32412;51.478;5.694;2023-08-17T06:03:39;17.40;99.90
46676;DHT22;32412;51.478;5.694;2023-08-17T06:06:05;17.50;99.90
46676;DHT22;32412;51.478;5.694;2023-08-17T06:08:31;17.40;99.90
46676;DHT22;32412;51.478;5.694;2023-08-17T06:10:57;17.40;99.90
46676;DHT22;32412;51.478;5.694;2023-08-17T06:13:22;17.40;99.90
46676;DHT22;32412;51.478;5.694;2023-08-17T06:15:48;17.30;99.90
46676;DHT22;32412;51.478;5.694;2023-08-17T06:18:14;17.50;99.90
46676;DHT22;32412;51.478;5.694;2023-08-17T06:20:40;17.60;99.90
46676;DHT22;32412;51.478;5.694;2023-08-17T06:23:05;17.60;99.90
46676;DHT22;32412;51.478;5.694;2023-08-17T06:25:31;17.60;99.90
46676;DHT22;32412;51.478;5.694;2023-08-17T06:27:57;17.60;99.90
46676;DHT22;32412;51.478;5.694;2023-08-17T06:30:22;17.80;99.90
46676;DHT22;32412;51.478;5.694;2023-08-17T06:32:50;17.80;99.90
46676;DHT22;32412;51.478;5.694;2023-08-17T06:35:15;17.80;99.90
46676;DHT22;32412;51.478;5.694;2023-08-17T06:37:41;18.00;99.90
46676;DHT22;32412;51.478;5.694;2023-08-17T06:40:07;18.00;99.90
46676;DHT22;32412;51.478;5.694;2023-08-17T06:42:36;17.90;99.90
46676;DHT22;32412;51.478;5.694;2023-08-17T06:45:02;18.00;99.90
46676;DHT22;32412;51.478;5.694;2023-08-17T06:47:28;18.00;99.90
46676;DHT22;32412;51.478;5.694;2023-08-17T06:49:55;18.10;99.90
46676;DHT22;32412;51.478;5.694;2023-08-17T06:52:20;18.10;99.90
46676;DHT22;32412;51.478;5.694;2023-08-17T06:54:46;18.10;99.90
46676;DHT22;32412;51.478;5.694;2023-08-17T06:57:12;18.10;99.90
46676;DHT22;32412;51.478;5.694;2023-08-17T06:59:37;18.10;99.90
46676;DHT22;32412;51.478;5.694;2023-08-17T07:02:03;18.20;99.90
46676;DHT22;32412;51.478;5.694;2023-08-17T07:04:29;18.30;99.90
46676;DHT22;32412;51.478;5.694;2023-08-17T07:06:54;18.20;99.90
46676;DHT22;32412;51.478;5.694;2023-08-17T07:09:20;18.10;99.90
46676;DHT22;32412;51.478;5.694;2023-08-17T07:11:46;18.10;99.90
46676;DHT22;32412;51.478;5.694;2023-08-17T07:14:12;18.00;99.90
46676;DHT22;32412;51.478;5.694;2023-08-17T07:16:37;18.10;99.90
46676;DHT22;32412;51.478;5.694;2023-08-17T07:19:03;18.00;99.90
46676;DHT22;32412;51.478;5.694;2023-08-17T07:21:29;18.10;99.90
46676;DHT22;32412;51.478;5.694;2023-08-17T07:23:55;18.30;99.90
46676;DHT22;32412;51.478;5.694;2023-08-17T07:26:21;18.20;99.90
46676;DHT22;32412;51.478;5.694;2023-08-17T07:28:48;18.30;99.90
46676;DHT22;32412;51.478;5.694;2023-08-17T07:31:14;18.20;99.90
46676;DHT22;32412;51.478;5.694;2023-08-17T07:33:40;18.10;99.90
46676;DHT22;32412;51.478;5.694;2023-08-17T07:36:05;17.90;99.90
46676;DHT22;32412;51.478;5.694;2023-08-17T07:38:31;17.90;99.90
46676;DHT22;32412;51.478;5.694;2023-08-17T07:40:58;18.00;99.90
46676;DHT22;32412;51.478;5.694;2023-08-17T07:43:24;18.10;99.90
46676;DHT22;32412;51.478;5.694;2023-08-17T07:45:56;18.20;99.90
46676;DHT22;32412;51.478;5.694;2023-08-17T07:48:23;18.20;99.90
46676;DHT22;32412;51.478;5.694;2023-08-17T07:50:50;18.40;99.90
46676;DHT22;32412;51.478;5.694;2023-08-17T07:53:18;18.50;99.90
46676;DHT22;32412;51.478;5.694;2023-08-17T07:55:44;18.50;99.90
46676;DHT22;32412;51.478;5.694;2023-08-17T07:58:10;18.40;99.90
46676;DHT22;32412;51.478;5.694;2023-08-17T08:00:36;18.50;99.90
46676;DHT22;32412;51.478;5.694;2023-08-17T08:03:02;18.50;99.90
46676;DHT22;32412;51.478;5.694;2023-08-17T08:05:27;18.40;99.90
46676;DHT22;32412;51.478;5.694;2023-08-17T08:07:53;18.40;99.90
46676;DHT22;32412;51.478;5.694;2023-08-17T08:10:19;18.30;99.90
46676;DHT22;32412;51.478;5.694;2023-08-17T08:12:44;18.30;99.90
46676;DHT22;32412;51.478;5.694;2023-08-17T08:15:10;18.10;99.90
46676;DHT22;32412;51.478;5.694;2023-08-17T08:17:36;18.20;99.90
46676;DHT22;32412;51.478;5.694;2023-08-17T08:20:06;18.20;99.90
46676;DHT22;32412;51.478;5.694;2023-08-17T08:22:31;18.20;99.90
46676;DHT22;32412;51.478;5.694;2023-08-17T08:24:57;18.30;99.90
46676;DHT22;32412;51.478;5.694;2023-08-17T08:27:23;18.30;99.90
46676;DHT22;32412;51.478;5.694;2023-08-17T08:29:50;18.40;99.90
46676;DHT22;32412;51.478;5.694;2023-08-17T08:32:16;18.40;99.90
46676;DHT22;32412;51.478;5.694;2023-08-17T08:34:41;18.40;99.90
46676;DHT22;32412;51.478;5.694;2023-08-17T08:37:07;18.40;99.90
46676;DHT22;32412;51.478;5.694;2023-08-17T08:39:32;18.50;99.90
46676;DHT22;32412;51.478;5.694;2023-08-17T08:42:12;18.50;99.90
46676;DHT22;32412;51.478;5.694;2023-08-17T08:44:39;18.40;99.90
46676;DHT22;32412;51.478;5.694;2023-08-17T08:47:05;18.50;99.90
46676;DHT22;32412;51.478;5.694;2023-08-17T08:49:32;18.60;99.90
46676;DHT22;32412;51.478;5.694;2023-08-17T08:52:02;18.60;99.90
46676;DHT22;32412;51.478;5.694;2023-08-17T08:54:29;18.70;99.90
46676;DHT22;32412;51.478;5.694;2023-08-17T08:57:00;18.70;99.90
46676;DHT22;32412;51.478;5.694;2023-08-17T08:59:28;18.80;99.90
46676;DHT22;32412;51.478;5.694;2023-08-17T09:01:55;18.80;99.90
46676;DHT22;32412;51.478;5.694;2023-08-17T09:04:23;18.80;99.90
46676;DHT22;32412;51.478;5.694;2023-08-17T09:06:50;18.80;99.90
46676;DHT22;32412;51.478;5.694;2023-08-17T09:09:16;18.80;99.90
46676;DHT22;32412;51.478;5.694;2023-08-17T09:11:43;18.80;99.90
46676;DHT22;32412;51.478;5.694;2023-08-17T09:14:11;18.90;99.90
46676;DHT22;32412;51.478;5.694;2023-08-17T09:16:37;19.00;99.90
46676;DHT22;32412;51.478;5.694;2023-08-17T09:19:03;19.10;99.90
46676;DHT22;32412;51.478;5.694;2023-08-17T09:21:32;19.20;99.90
46676;DHT22;32412;51.478;5.694;2023-08-17T09:23:58;19.40;99.90
46676;DHT22;32412;51.478;5.694;2023-08-17T09:26:24;19.50;99.90
46676;DHT22;32412;51.478;5.694;2023-08-17T09:28:51;19.20;99.90
46676;DHT22;32412;51.478;5.694;2023-08-17T09:31:20;19.00;99.90
46676;DHT22;32412;51.478;5.694;2023-08-17T09:33:51;18.90;99.90
46676;DHT22;32412;51.478;5.694;2023-08-17T09:36:21;19.00;99.90
46676;DHT22;32412;51.478;5.694;2023-08-17T09:38:53;19.10;99.90
46676;DHT22;32412;51.478;5.694;2023-08-17T09:41:19;19.10;99.90
46676;DHT22;32412;51.478;5.694;2023-08-17T09:43:45;18.90;99.90
46676;DHT22;32412;51.478;5.694;2023-08-17T09:46:11;18.90;99.90
46676;DHT22;32412;51.478;5.694;2023-08-17T09:48:37;18.80;99.90
46676;DHT22;32412;51.478;5.694;2023-08-17T09:51:03;18.90;99.90
46676;DHT22;32412;51.478;5.694;2023-08-17T09:53:34;19.10;99.90
46676;DHT22;32412;51.478;5.694;2023-08-17T09:56:01;19.30;99.90
46676;DHT22;32412;51.478;5.694;2023-08-17T09:58:27;19.30;99.90
46676;DHT22;32412;51.478;5.694;2023-08-17T10:00:53;19.40;99.90
46676;DHT22;32412;51.478;5.694;2023-08-17T10:03:21;19.40;99.90
46676;DHT22;32412;51.478;5.694;2023-08-17T10:05:59;19.30;99.90
46676;DHT22;32412;51.478;5.694;2023-08-17T10:08:28;19.20;99.90
46676;DHT22;32412;51.478;5.694;2023-08-17T10:10:55;19.10;99.90
46676;DHT22;32412;51.478;5.694;2023-08-17T10:13:35;19.10;99.90
46676;DHT22;32412;51.478;5.694;2023-08-17T10:16:23;19.10;99.90
46676;DHT22;32412;51.478;5.694;2023-08-17T10:19:05;19.40;99.90
46676;DHT22;32412;51.478;5.694;2023-08-17T10:21:48;19.60;99.90
46676;DHT22;32412;51.478;5.694;2023-08-17T10:24:17;19.80;99.90
46676;DHT22;32412;51.478;5.694;2023-08-17T10:26:43;19.80;99.90
46676;DHT22;32412;51.478;5.694;2023-08-17T10:29:10;20.00;99.90
46676;DHT22;32412;51.478;5.694;2023-08-17T10:31:37;20.10;99.90
46676;DHT22;32412;51.478;5.694;2023-08-17T10:34:03;20.20;99.90
46676;DHT22;32412;51.478;5.694;2023-08-17T10:36:31;20.40;99.90
46676;DHT22;32412;51.478;5.694;2023-08-17T10:39:27;20.50;99.90
46676;DHT22;32412;51.478;5.694;2023-08-17T10:41:53;20.60;99.90
46676;DHT22;32412;51.478;5.694;2023-08-17T10:44:48;20.90;99.90
46676;DHT22;32412;51.478;5.694;2023-08-17T10:47:28;20.90;99.90
46676;DHT22;32412;51.478;5.694;2023-08-17T10:50:05;21.10;99.90
46676;DHT22;32412;51.478;5.694;2023-08-17T10:52:36;21.20;99.90
46676;DHT22;32412;51.478;5.694;2023-08-17T10:55:07;21.40;99.90
46676;DHT22;32412;51.478;5.694;2023-08-17T10:57:40;21.20;99.90
46676;DHT22;32412;51.478;5.694;2023-08-17T11:02:37;21.20;99.90
46676;DHT22;32412;51.478;5.694;2023-08-17T11:05:03;21.00;99.90
46676;DHT22;32412;51.478;5.694;2023-08-17T11:07:43;21.20;99.90
46676;DHT22;32412;51.478;5.694;2023-08-17T11:10:29;21.50;99.90
46676;DHT22;32412;51.478;5.694;2023-08-17T11:12:58;21.60;99.90
46676;DHT22;32412;51.478;5.694;2023-08-17T11:15:41;21.70;99.90
46676;DHT22;32412;51.478;5.694;2023-08-17T11:18:11;21.30;99.90
46676;DHT22;32412;51.478;5.694;2023-08-17T11:20:39;21.10;99.90
46676;DHT22;32412;51.478;5.694;2023-08-17T11:23:09;21.10;99.90
46676;DHT22;32412;51.478;5.694;2023-08-17T11:25:35;21.20;99.90
46676;DHT22;32412;51.478;5.694;2023-08-17T11:28:03;21.20;99.90
46676;DHT22;32412;51.478;5.694;2023-08-17T11:30:29;21.20;99.90
46676;DHT22;32412;51.478;5.694;2023-08-17T11:32:56;21.20;99.90
46676;DHT22;32412;51.478;5.694;2023-08-17T11:35:22;20.90;99.90
46676;DHT22;32412;51.478;5.694;2023-08-17T11:37:48;20.70;99.90
46676;DHT22;32412;51.478;5.694;2023-08-17T11:40:15;20.60;99.90
46676;DHT22;32412;51.478;5.694;2023-08-17T11:42:42;20.70;99.90
46676;DHT22;32412;51.478;5.694;2023-08-17T11:45:08;20.80;99.90
46676;DHT22;32412;51.478;5.694;2023-08-17T11:47:41;20.90;99.90
46676;DHT22;32412;51.478;5.694;2023-08-17T11:50:11;21.10;99.90
46676;DHT22;32412;51.478;5.694;2023-08-17T11:52:38;21.00;99.90
46676;DHT22;32412;51.478;5.694;2023-08-17T11:55:08;20.90;99.90
46676;DHT22;32412;51.478;5.694;2023-08-17T11:57:37;20.90;99.90
46676;DHT22;32412;51.478;5.694;2023-08-17T12:00:05;20.80;99.90
46676;DHT22;32412;51.478;5.694;2023-08-17T12:02:37;20.70;99.90
46676;DHT22;32412;51.478;5.694;2023-08-17T12:05:08;20.80;99.90
46676;DHT22;32412;51.478;5.694;2023-08-17T12:07:35;20.70;99.90
46676;DHT22;32412;51.478;5.694;2023-08-17T12:10:03;20.70;99.90
46676;DHT22;32412;51.478;5.694;2023-08-17T12:12:29;20.70;99.90
46676;DHT22;32412;51.478;5.694;2023-08-17T12:14:56;20.60;99.90
46676;DHT22;32412;51.478;5.694;2023-08-17T12:17:22;20.50;99.90
46676;DHT22;32412;51.478;5.694;2023-08-17T12:19:54;20.40;99.90
46676;DHT22;32412;51.478;5.694;2023-08-17T12:22:23;20.50;99.90
46676;DHT22;32412;51.478;5.694;2023-08-17T12:24:49;20.60;99.90
46676;DHT22;32412;51.478;5.694;2023-08-17T12:27:15;20.70;99.90
46676;DHT22;32412;51.478;5.694;2023-08-17T12:29:50;21.00;99.90
46676;DHT22;32412;51.478;5.694;2023-08-17T12:32:17;21.20;99.90
46676;DHT22;32412;51.478;5.694;2023-08-17T12:34:43;21.40;99.90
46676;DHT22;32412;51.478;5.694;2023-08-17T12:37:09;21.30;99.90
46676;DHT22;32412;51.478;5.694;2023-08-17T12:39:36;21.20;99.90
46676;DHT22;32412;51.478;5.694;2023-08-17T12:42:02;21.50;99.90
46676;DHT22;32412;51.478;5.694;2023-08-17T12:44:29;21.50;99.90
46676;DHT22;32412;51.478;5.694;2023-08-17T12:46:55;21.60;99.90
46676;DHT22;32412;51.478;5.694;2023-08-17T12:49:22;21.60;99.90
46676;DHT22;32412;51.478;5.694;2023-08-17T12:51:48;21.50;99.90
46676;DHT22;32412;51.478;5.694;2023-08-17T12:54:14;21.50;99.90
46676;DHT22;32412;51.478;5.694;2023-08-17T12:56:39;21.60;99.90
46676;DHT22;32412;51.478;5.694;2023-08-17T12:59:05;21.60;99.90
46676;DHT22;32412;51.478;5.694;2023-08-17T13:01:31;21.50;99.90
46676;DHT22;32412;51.478;5.694;2023-08-17T13:03:56;21.40;99.90
46676;DHT22;32412;51.478;5.694;2023-08-17T13:06:22;21.10;99.90
46676;DHT22;32412;51.478;5.694;2023-08-17T13:08:47;21.00;99.90
46676;DHT22;32412;51.478;5.694;2023-08-17T13:11:13;20.80;99.90
46676;DHT22;32412;51.478;5.694;2023-08-17T13:13:39;20.70;99.90
46676;DHT22;32412;51.478;5.694;2023-08-17T13:16:04;20.90;99.90
46676;DHT22;32412;51.478;5.694;2023-08-17T13:18:30;20.90;99.90
46676;DHT22;32412;51.478;5.694;2023-08-17T13:20:56;20.90;99.90
46676;DHT22;32412;51.478;5.694;2023-08-17T13:23:21;21.00;99.90
46676;DHT22;32412;51.478;5.694;2023-08-17T13:25:47;21.00;99.90
46676;DHT22;32412;51.478;5.694;2023-08-17T13:28:13;21.00;99.90
46676;DHT22;32412;51.478;5.694;2023-08-17T13:30:39;21.20;99.90
46676;DHT22;32412;51.478;5.694;2023-08-17T13:33:05;21.20;99.90
46676;DHT22;32412;51.478;5.694;2023-08-17T13:35:32;21.20;99.90
46676;DHT22;32412;51.478;5.694;2023-08-17T13:37:58;21.20;99.90
46676;DHT22;32412;51.478;5.694;2023-08-17T13:40:23;21.20;99.90
46676;DHT22;32412;51.478;5.694;2023-08-17T13:42:49;21.30;99.90
46676;DHT22;32412;51.478;5.694;2023-08-17T13:45:15;21.30;99.90
46676;DHT22;32412;51.478;5.694;2023-08-17T13:47:41;21.20;99.90
46676;DHT22;32412;51.478;5.694;2023-08-17T13:50:06;21.20;99.90
46676;DHT22;32412;51.478;5.694;2023-08-17T13:52:32;21.10;99.90
46676;DHT22;32412;51.478;5.694;2023-08-17T13:54:58;21.00;99.90
46676;DHT22;32412;51.478;5.694;2023-08-17T13:57:23;20.90;99.90
46676;DHT22;32412;51.478;5.694;2023-08-17T13:59:49;20.90;99.90
46676;DHT22;32412;51.478;5.694;2023-08-17T14:02:15;21.00;99.90
46676;DHT22;32412;51.478;5.694;2023-08-17T14:04:40;20.90;99.90
46676;DHT22;32412;51.478;5.694;2023-08-17T14:07:06;20.90;99.90
46676;DHT22;32412;51.478;5.694;2023-08-17T14:09:32;20.80;99.90
46676;DHT22;32412;51.478;5.694;2023-08-17T14:11:57;20.80;99.90
46676;DHT22;32412;51.478;5.694;2023-08-17T14:14:23;20.90;99.90
46676;DHT22;32412;51.478;5.694;2023-08-17T14:16:49;21.00;99.90
46676;DHT22;32412;51.478;5.694;2023-08-17T14:19:14;21.10;99.90
46676;DHT22;32412;51.478;5.694;2023-08-17T14:21:40;21.20;99.90
46676;DHT22;32412;51.478;5.694;2023-08-17T14:24:06;21.10;99.90
46676;DHT22;32412;51.478;5.694;2023-08-17T14:26:33;21.00;99.90
46676;DHT22;32412;51.478;5.694;2023-08-17T14:28:59;21.00;99.90
46676;DHT22;32412;51.478;5.694;2023-08-17T14:31:25;20.90;99.90
46676;DHT22;32412;51.478;5.694;2023-08-17T14:33:51;20.80;99.90
46676;DHT22;32412;51.478;5.694;2023-08-17T14:36:17;20.90;99.90
46676;DHT22;32412;51.478;5.694;2023-08-17T14:38:43;20.90;99.90
46676;DHT22;32412;51.478;5.694;2023-08-17T14:41:08;20.90;99.90
46676;DHT22;32412;51.478;5.694;2023-08-17T14:43:35;20.80;99.90
46676;DHT22;32412;51.478;5.694;2023-08-17T14:46:00;20.80;99.90
46676;DHT22;32412;51.478;5.694;2023-08-17T14:48:26;20.70;99.90
46676;DHT22;32412;51.478;5.694;2023-08-17T14:50:52;20.70;99.90
46676;DHT22;32412;51.478;5.694;2023-08-17T14:53:17;20.70;99.90
46676;DHT22;32412;51.478;5.694;2023-08-17T14:55:43;20.70;99.90
46676;DHT22;32412;51.478;5.694;2023-08-17T14:58:09;20.60;99.90
46676;DHT22;32412;51.478;5.694;2023-08-17T15:00:35;20.60;99.90
46676;DHT22;32412;51.478;5.694;2023-08-17T15:03:01;20.60;99.90
46676;DHT22;32412;51.478;5.694;2023-08-17T15:05:26;20.70;99.90
46676;DHT22;32412;51.478;5.694;2023-08-17T15:07:52;20.70;99.90
46676;DHT22;32412;51.478;5.694;2023-08-17T15:10:18;20.80;99.90
46676;DHT22;32412;51.478;5.694;2023-08-17T15:12:44;20.90;99.90
46676;DHT22;32412;51.478;5.694;2023-08-17T15:15:09;20.80;99.90
46676;DHT22;32412;51.478;5.694;2023-08-17T15:17:35;20.70;99.90
46676;DHT22;32412;51.478;5.694;2023-08-17T15:20:02;20.60;99.90
46676;DHT22;32412;51.478;5.694;2023-08-17T15:22:28;20.60;99.90
46676;DHT22;32412;51.478;5.694;2023-08-17T15:24:53;20.60;99.90
46676;DHT22;32412;51.478;5.694;2023-08-17T15:27:19;20.70;99.90
46676;DHT22;32412;51.478;5.694;2023-08-17T15:29:45;20.70;99.90
46676;DHT22;32412;51.478;5.694;2023-08-17T15:32:10;20.80;99.90
46676;DHT22;32412;51.478;5.694;2023-08-17T15:34:36;20.80;99.90
46676;DHT22;32412;51.478;5.694;2023-08-17T15:37:01;20.70;99.90
46676;DHT22;32412;51.478;5.694;2023-08-17T15:39:28;20.60;99.90